Time;durP1;ratioP1;P1;durP2;ratioP2;P2;SDS_P1;SDS_P2;PMS_P1;PMS_P2;Temp;Humidity;BMP_temperature;BMP_pressure;BME280_temperature;BME280_humidity;BME280_pressure;Samples;Min_cycle;Max_cycle;Signal;HPM_P1;HPM_P2
2022/07/15 00:00:08;;;;;;;4.83;3.20;;;23.30;53.50;;;;;;5115045;28;20485;-65
2022/07/15 00:02:36;;;;;;;6.20;3.73;;;23.20;53.40;;;;;;5115111;28;20517;-65
2022/07/15 00:05:03;;;;;;;4.33;2.80;;;23.20;53.30;;;;;;5115210;28;20445;-66
2022/07/15 00:07:31;;;;;;;4.50;2.60;;;23.10;53.40;;;;;;5114989;28;20437;-66
2022/07/15 00:10:18;;;;;;;9.20;3.60;;;23.10;53.30;;;;;;5114888;28;20942;-65
2022/07/15 00:12:48;;;;;;;4.07;2.93;;;23.10;53.20;;;;;;5115459;28;20965;-65
2022/07/15 00:15:17;;;;;;;5.13;3.20;;;23.10;53.00;;;;;;5094657;28;20434;-65
2022/07/15 00:17:44;;;;;;;4.87;2.90;;;23.00;53.10;;;;;;5094764;28;20934;-67
2022/07/15 00:20:14;;;;;;;5.40;2.70;;;23.10;53.30;;;;;;5113664;28;20485;-65
2022/07/15 00:22:42;;;;;;;4.90;3.27;;;23.00;53.20;;;;;;5114973;28;20441;-65
2022/07/15 00:25:11;;;;;;;6.90;3.47;;;23.00;53.20;;;;;;5114139;28;20438;-66
2022/07/15 00:27:56;;;;;;;4.50;2.50;;;23.00;52.80;;;;;;5114546;28;20440;-65
2022/07/15 00:30:24;;;;;;;4.80;3.00;;;23.00;52.50;;;;;;5113518;28;20449;-66
2022/07/15 00:32:52;;;;;;;5.70;3.60;;;23.00;52.70;;;;;;5114490;28;20851;-66
2022/07/15 00:35:19;;;;;;;5.97;3.00;;;23.00;53.40;;;;;;5114770;28;20496;-66
2022/07/15 00:37:47;;;;;;;3.57;3.03;;;22.90;54.00;;;;;;5114658;28;20497;-71
2022/07/15 00:40:14;;;;;;;4.63;3.00;;;22.90;55.00;;;;;;5114178;28;20487;-66
2022/07/15 00:42:47;;;;;;;5.90;3.10;;;22.90;55.40;;;;;;5114463;28;20445;-65
2022/07/15 00:45:18;;;;;;;4.83;3.30;;;22.80;56.70;;;;;;5114021;28;20514;-65
2022/07/15 00:47:47;;;;;;;5.10;3.60;;;22.70;57.10;;;;;;5114084;28;20937;-65
2022/07/15 00:50:15;;;;;;;4.30;3.57;;;22.70;57.70;;;;;;5114377;28;20435;-65
2022/07/15 00:52:45;;;;;;;6.60;3.27;;;22.60;58.60;;;;;;5114048;28;20858;-66
2022/07/15 00:55:14;;;;;;;5.37;4.37;;;22.50;58.70;;;;;;5113742;28;20441;-65
2022/07/15 00:57:43;;;;;;;5.07;2.90;;;22.50;59.80;;;;;;5113810;28;20538;-65
2022/07/15 01:00:12;;;;;;;4.60;3.77;;;22.40;60.10;;;;;;5113995;28;20515;-65
2022/07/15 01:02:43;;;;;;;5.20;3.73;;;22.40;60.70;;;;;;5113576;28;20471;-65
2022/07/15 01:05:12;;;;;;;6.40;3.57;;;22.30;62.30;;;;;;5114140;28;20891;-65
2022/07/15 01:07:39;;;;;;;5.93;3.57;;;22.20;63.70;;;;;;5113665;28;20453;-66
2022/07/15 01:10:07;;;;;;;5.60;3.50;;;22.20;63.80;;;;;;5114000;28;20490;-65
2022/07/15 01:12:37;;;;;;;6.57;3.37;;;22.10;64.00;;;;;;5113356;28;20439;-65
2022/07/15 01:15:05;;;;;;;6.03;3.53;;;22.10;64.20;;;;;;5113880;28;20438;-66
2022/07/15 01:17:32;;;;;;;5.90;4.43;;;21.90;63.30;;;;;;5113416;28;20526;-65
2022/07/15 01:20:01;;;;;;;4.67;4.17;;;21.80;66.10;;;;;;5113672;28;20476;-65
2022/07/15 01:22:30;;;;;;;5.50;3.50;;;21.70;68.10;;;;;;5113301;28;20432;-66
2022/07/15 01:24:58;;;;;;;4.73;3.77;;;21.60;68.80;;;;;;5113478;28;20442;-65
2022/07/15 01:27:27;;;;;;;4.80;3.47;;;21.70;69.00;;;;;;5113226;28;20439;-66
2022/07/15 01:29:54;;;;;;;4.20;3.33;;;21.70;68.80;;;;;;5113887;28;20783;-66
2022/07/15 01:32:21;;;;;;;6.30;3.80;;;21.70;69.90;;;;;;5113330;28;20431;-66
2022/07/15 01:34:49;;;;;;;7.57;3.90;;;21.50;70.70;;;;;;5113000;28;20446;-66
2022/07/15 01:37:16;;;;;;;4.30;3.47;;;21.50;71.50;;;;;;5113213;28;20790;-65
2022/07/15 01:39:45;;;;;;;5.87;4.33;;;21.50;71.70;;;;;;5113598;28;20495;-66
2022/07/15 01:42:12;;;;;;;6.60;4.30;;;21.50;71.20;;;;;;5112231;28;20445;-66
2022/07/15 01:44:40;;;;;;;4.87;4.37;;;21.50;70.70;;;;;;5113318;28;20519;-66
2022/07/15 01:47:07;;;;;;;8.20;4.20;;;21.50;71.10;;;;;;5112480;28;20441;-65
2022/07/15 01:49:33;;;;;;;6.23;4.07;;;21.50;72.10;;;;;;5113196;28;20437;-66
2022/07/15 01:52:02;;;;;;;5.07;3.60;;;21.50;72.10;;;;;;5113185;28;20724;-65
2022/07/15 01:54:31;;;;;;;5.83;3.90;;;21.50;70.20;;;;;;5112887;28;20827;-66
2022/07/15 01:57:03;;;;;;;5.40;4.00;;;21.40;69.60;;;;;;5112614;28;20434;-65
2022/07/15 01:59:31;;;;;;;5.83;4.40;;;21.30;71.20;;;;;;5113118;28;20535;-65
2022/07/15 02:01:58;;;;;;;7.90;4.63;;;21.30;71.90;;;;;;5112098;28;20553;-65
2022/07/15 02:04:27;;;;;;;5.60;4.00;;;21.20;72.80;;;;;;5112670;28;20444;-66
2022/07/15 02:06:54;;;;;;;6.00;4.83;;;21.20;73.90;;;;;;5112442;28;20944;-66
2022/07/15 02:09:21;;;;;;;8.77;4.90;;;21.00;74.50;;;;;;5113268;28;20442;-65
2022/07/15 02:11:48;;;;;;;7.57;5.07;;;21.00;74.70;;;;;;5112369;28;20442;-68
2022/07/15 02:14:17;;;;;;;6.73;4.90;;;20.90;75.40;;;;;;5113130;28;20520;-66
2022/07/15 02:16:45;;;;;;;6.57;5.40;;;20.90;76.00;;;;;;5112544;28;20438;-66
2022/07/15 02:19:12;;;;;;;8.80;4.97;;;20.90;76.40;;;;;;5112610;28;20438;-66
2022/07/15 02:21:39;;;;;;;7.23;4.47;;;20.80;77.00;;;;;;5112373;28;20665;-65
2022/07/15 02:24:07;;;;;;;4.00;3.40;;;20.80;77.30;;;;;;5112737;28;20435;-66
2022/07/15 02:26:34;;;;;;;8.00;4.23;;;20.80;77.50;;;;;;5112881;28;20426;-65
2022/07/15 02:29:01;;;;;;;6.93;5.53;;;20.70;75.60;;;;;;5112611;28;20477;-66
2022/07/15 02:31:30;;;;;;;6.17;4.60;;;20.60;77.50;;;;;;5112148;28;20516;-65
2022/07/15 02:33:57;;;;;;;6.57;4.43;;;20.50;77.40;;;;;;5112515;28;20936;-65
2022/07/15 02:36:25;;;;;;;8.60;5.53;;;20.50;78.00;;;;;;5112393;28;20883;-65
2022/07/15 02:38:52;;;;;;;6.57;5.43;;;20.50;77.70;;;;;;5112503;28;20967;-67
2022/07/15 02:41:19;;;;;;;7.77;5.17;;;20.40;77.80;;;;;;5112169;28;20565;-65
2022/07/15 02:43:48;;;;;;;6.47;5.70;;;20.40;78.50;;;;;;5112579;28;20477;-65
2022/07/15 02:46:15;;;;;;;7.90;5.27;;;20.40;78.10;;;;;;5112267;28;20808;-65
2022/07/15 02:48:44;;;;;;;8.50;4.90;;;20.40;77.90;;;;;;5112552;28;20434;-65
2022/07/15 02:51:11;;;;;;;6.33;4.20;;;20.40;79.20;;;;;;5112087;28;20438;-65
2022/07/15 02:53:39;;;;;;;6.30;4.67;;;20.40;78.40;;;;;;5114853;28;20434;-65
2022/07/15 02:56:07;;;;;;;7.23;5.00;;;20.30;78.20;;;;;;5116652;28;20442;-65
2022/07/15 02:58:35;;;;;;;11.53;6.20;;;20.30;79.90;;;;;;5116064;28;20437;-66
2022/07/15 03:01:02;;;;;;;7.13;6.40;;;20.20;80.00;;;;;;5115978;28;20484;-65
2022/07/15 03:03:29;;;;;;;8.83;6.50;;;20.10;82.80;;;;;;5115929;28;20461;-65
2022/07/15 03:05:59;;;;;;;8.27;4.67;;;20.10;82.90;;;;;;5116486;28;20438;-65
2022/07/15 03:08:26;;;;;;;8.83;5.57;;;20.00;83.90;;;;;;5116008;28;20807;-65
2022/07/15 03:10:53;;;;;;;7.30;6.60;;;20.00;84.20;;;;;;5115625;28;20438;-66
2022/07/15 03:13:21;;;;;;;7.17;5.23;;;20.00;83.80;;;;;;5116621;28;20442;-65
2022/07/15 03:15:48;;;;;;;6.87;5.83;;;19.90;85.10;;;;;;5115712;28;20430;-66
2022/07/15 03:18:15;;;;;;;7.27;5.30;;;19.90;84.90;;;;;;5116427;28;20437;-65
2022/07/15 03:20:45;;;;;;;7.63;4.83;;;19.90;85.40;;;;;;5115739;28;20558;-65
2022/07/15 03:23:14;;;;;;;5.83;5.33;;;19.90;85.70;;;;;;5116138;28;20481;-65
2022/07/15 03:25:42;;;;;;;6.80;4.60;;;19.90;86.20;;;;;;5115418;28;20433;-67
2022/07/15 03:28:09;;;;;;;6.10;5.50;;;19.90;86.30;;;;;;5115717;28;20442;-65
2022/07/15 03:30:36;;;;;;;6.90;4.80;;;19.80;86.90;;;;;;5115410;28;21000;-65
2022/07/15 03:33:03;;;;;;;7.97;5.17;;;19.80;86.90;;;;;;5115731;28;20430;-65
2022/07/15 03:35:31;;;;;;;7.73;6.77;;;19.80;87.20;;;;;;5115699;28;20434;-66
2022/07/15 03:37:58;;;;;;;6.20;5.60;;;19.80;87.40;;;;;;5116020;28;20862;-65
2022/07/15 03:40:27;;;;;;;6.20;5.30;;;19.70;88.00;;;;;;5115427;28;20434;-67
2022/07/15 03:42:54;;;;;;;7.90;5.93;;;19.70;88.00;;;;;;5115876;28;20434;-66
2022/07/15 03:45:21;;;;;;;7.13;6.37;;;19.60;88.60;;;;;;5115724;28;20842;-65
2022/07/15 03:47:49;;;;;;;6.27;5.60;;;19.50;89.00;;;;;;5114950;28;20783;-65
2022/07/15 03:50:16;;;;;;;7.37;5.23;;;19.60;88.80;;;;;;5115702;28;20966;-65
2022/07/15 03:52:43;;;;;;;7.23;5.40;;;19.50;88.00;;;;;;5115012;28;20507;-65
2022/07/15 03:55:11;;;;;;;9.37;6.10;;;19.50;88.30;;;;;;5115336;28;20438;-65
2022/07/15 03:57:40;;;;;;;6.20;5.53;;;19.40;88.90;;;;;;5114826;28;20441;-66
2022/07/15 04:00:09;;;;;;;7.23;6.30;;;19.40;89.00;;;;;;5115395;28;20441;-65
2022/07/15 04:02:36;;;;;;;8.00;5.63;;;19.30;89.60;;;;;;5114629;28;20489;-66
2022/07/15 04:05:03;;;;;;;8.60;5.87;;;19.10;90.10;;;;;;5114436;28;20430;-65
2022/07/15 04:07:31;;;;;;;7.13;5.97;;;19.10;90.60;;;;;;5115159;28;20444;-65
2022/07/15 04:09:58;;;;;;;8.17;6.60;;;19.00;91.20;;;;;;5115275;28;20441;-65
2022/07/15 04:12:25;;;;;;;8.17;6.00;;;18.90;91.70;;;;;;5114731;28;20499;-65
2022/07/15 04:14:53;;;;;;;8.00;6.10;;;18.90;92.30;;;;;;5115083;28;20462;-65
2022/07/15 04:17:21;;;;;;;8.17;6.10;;;18.80;92.30;;;;;;5115229;28;20434;-66
2022/07/15 04:19:48;;;;;;;7.87;6.33;;;18.90;92.70;;;;;;5115166;28;20422;-65
2022/07/15 04:22:16;;;;;;;10.13;6.20;;;18.90;92.60;;;;;;5115333;28;20807;-65
2022/07/15 04:24:43;;;;;;;8.60;6.20;;;18.90;92.70;;;;;;5114669;28;20503;-66
2022/07/15 04:27:11;;;;;;;7.80;5.60;;;18.90;92.80;;;;;;5115121;28;20791;-65
2022/07/15 04:29:38;;;;;;;7.37;5.87;;;18.90;93.30;;;;;;5114019;28;20441;-66
2022/07/15 04:32:08;;;;;;;6.60;6.00;;;18.90;93.20;;;;;;5114869;28;20435;-67
2022/07/15 04:34:36;;;;;;;10.43;5.40;;;18.90;93.40;;;;;;5114542;28;20971;-65
2022/07/15 04:37:03;;;;;;;9.47;7.60;;;18.90;93.00;;;;;;5094302;28;20791;-65
2022/07/15 04:39:30;;;;;;;7.10;5.77;;;18.90;93.70;;;;;;5094205;28;20926;-66
2022/07/15 04:41:58;;;;;;;7.67;6.30;;;18.90;93.80;;;;;;5113527;28;20481;-65
2022/07/15 04:44:25;;;;;;;7.87;5.23;;;19.00;93.80;;;;;;5114777;28;20795;-68
2022/07/15 04:46:52;;;;;;;6.90;6.20;;;19.10;93.60;;;;;;5114152;28;20461;-65
2022/07/15 04:52:05;;;;;;;6.43;5.73;;;19.20;94.00;;;;;;5112695;28;20429;-65
2022/07/15 04:54:33;;;;;;;7.07;6.40;;;19.20;93.50;;;;;;5112594;28;20434;-66
2022/07/15 04:57:00;;;;;;;10.10;6.60;;;19.30;93.30;;;;;;5112636;28;20525;-66
2022/07/15 04:59:27;;;;;;;9.57;6.50;;;19.40;93.40;;;;;;5112626;28;20438;-65
2022/07/15 05:01:54;;;;;;;10.37;7.00;;;19.50;92.90;;;;;;5111677;28;20481;-66
2022/07/15 05:04:23;;;;;;;7.00;5.70;;;19.50;93.10;;;;;;5112534;28;20438;-65
2022/07/15 05:06:50;;;;;;;10.63;6.80;;;19.60;93.00;;;;;;5112235;28;20483;-66
2022/07/15 05:09:17;;;;;;;7.77;6.10;;;19.60;93.00;;;;;;5108247;28;20449;-65
2022/07/15 05:11:45;;;;;;;8.70;5.90;;;19.70;93.00;;;;;;5111874;28;20474;-65
2022/07/15 05:14:12;;;;;;;6.67;5.87;;;19.80;92.90;;;;;;5112008;27;20525;-66
2022/07/15 05:16:39;;;;;;;6.93;5.87;;;19.90;92.70;;;;;;5111630;28;20495;-66
2022/07/15 05:19:06;;;;;;;7.23;6.20;;;20.00;92.90;;;;;;5111590;28;20478;-66
2022/07/15 05:21:35;;;;;;;10.90;6.20;;;20.00;91.70;;;;;;5111829;28;20486;-65
2022/07/15 05:24:03;;;;;;;9.03;6.50;;;20.00;91.60;;;;;;5111594;28;20434;-69
2022/07/15 05:26:30;;;;;;;7.53;6.60;;;20.10;91.70;;;;;;5111474;28;20438;-66
2022/07/15 05:28:57;;;;;;;11.80;7.67;;;20.10;91.40;;;;;;5111596;28;20470;-65
2022/07/15 05:31:25;;;;;;;7.63;6.80;;;20.10;91.40;;;;;;5111881;28;20430;-66
2022/07/15 05:33:53;;;;;;;9.70;6.63;;;20.20;91.70;;;;;;5111706;28;20441;-67
2022/07/15 05:36:20;;;;;;;8.03;5.97;;;20.30;92.20;;;;;;5111416;28;20592;-65
2022/07/15 05:38:49;;;;;;;10.67;6.53;;;20.40;92.20;;;;;;5111602;28;20458;-69
2022/07/15 05:41:16;;;;;;;8.37;5.83;;;20.40;91.90;;;;;;5111606;28;20461;-65
2022/07/15 05:43:44;;;;;;;9.63;6.87;;;20.40;91.90;;;;;;5110706;28;20948;-66
2022/07/15 05:46:12;;;;;;;8.20;6.60;;;20.40;92.10;;;;;;5111374;28;20929;-65
2022/07/15 05:48:40;;;;;;;9.60;7.00;;;20.50;92.50;;;;;;5111256;28;20461;-65
2022/07/15 05:51:08;;;;;;;9.87;6.87;;;20.60;92.70;;;;;;5111546;28;20525;-66
2022/07/15 05:53:35;;;;;;;9.63;6.10;;;20.80;92.80;;;;;;5110762;28;20445;-66
2022/07/15 05:56:05;;;;;;;11.40;7.20;;;20.90;92.40;;;;;;5111119;28;20475;-65
2022/07/15 05:58:32;;;;;;;8.10;5.83;;;21.00;92.20;;;;;;5111052;28;20522;-65
2022/07/15 06:00:59;;;;;;;9.10;5.20;;;21.10;91.80;;;;;;5110916;28;20466;-66
2022/07/15 06:03:26;;;;;;;9.20;5.03;;;21.20;90.70;;;;;;5110291;28;20480;-65
2022/07/15 06:05:53;;;;;;;7.00;4.90;;;21.20;88.80;;;;;;5110941;28;20453;-66
2022/07/15 06:08:21;;;;;;;9.90;5.87;;;21.20;85.80;;;;;;5111228;28;20442;-65
2022/07/15 06:10:48;;;;;;;8.17;5.63;;;21.10;85.20;;;;;;5110649;28;20449;-66
2022/07/15 06:13:17;;;;;;;7.50;5.43;;;21.20;86.90;;;;;;5110483;28;20434;-66
2022/07/15 06:15:44;;;;;;;9.20;6.37;;;21.30;87.70;;;;;;5110940;28;20973;-65
2022/07/15 06:18:11;;;;;;;8.83;4.20;;;21.40;84.20;;;;;;5110993;28;20775;-66
2022/07/15 06:20:38;;;;;;;6.70;4.77;;;21.50;83.30;;;;;;5110018;28;20439;-66
2022/07/15 06:23:06;;;;;;;8.00;4.87;;;21.60;81.70;;;;;;5110830;28;20489;-65
2022/07/15 06:25:33;;;;;;;5.63;4.70;;;21.80;83.50;;;;;;5110404;28;20442;-65
2022/07/15 06:28:01;;;;;;;11.17;5.03;;;22.00;84.10;;;;;;5109798;28;20430;-68
2022/07/15 06:30:30;;;;;;;9.73;4.60;;;22.10;83.70;;;;;;5111136;28;20525;-66
2022/07/15 06:32:58;;;;;;;7.07;4.83;;;22.30;83.10;;;;;;5110513;28;20445;-66
2022/07/15 06:35:25;;;;;;;9.33;4.47;;;22.40;81.70;;;;;;5110136;28;20431;-66
2022/07/15 06:37:53;;;;;;;6.73;5.20;;;22.50;81.30;;;;;;5110584;28;20447;-66
2022/07/15 06:40:20;;;;;;;9.40;5.67;;;22.50;80.80;;;;;;5110334;28;20431;-66
2022/07/15 06:42:47;;;;;;;7.67;5.37;;;22.60;81.20;;;;;;5108267;28;20487;-66
2022/07/15 06:45:15;;;;;;;7.90;5.73;;;22.70;81.60;;;;;;5110071;28;20497;-66
2022/07/15 06:47:44;;;;;;;6.20;5.30;;;22.80;82.30;;;;;;5110271;28;20795;-66
2022/07/15 06:50:12;;;;;;;6.97;4.47;;;22.90;80.90;;;;;;5110722;28;20511;-65
2022/07/15 06:52:39;;;;;;;10.97;5.27;;;23.00;80.60;;;;;;5110741;28;20444;-70
2022/07/15 06:55:07;;;;;;;9.13;5.47;;;23.10;79.70;;;;;;5110681;28;20523;-66
2022/07/15 06:57:34;;;;;;;11.73;6.17;;;23.30;80.30;;;;;;5109141;28;20514;-66
2022/07/15 07:00:02;;;;;;;7.13;5.50;;;23.40;79.20;;;;;;5110575;28;20444;-66
2022/07/15 07:02:31;;;;;;;6.80;5.57;;;23.40;78.40;;;;;;5109984;28;20837;-68
2022/07/15 07:04:59;;;;;;;6.77;5.50;;;23.50;78.70;;;;;;5110026;28;20433;-66
2022/07/15 07:07:26;;;;;;;7.40;4.90;;;23.50;78.70;;;;;;5112555;28;20429;-66
2022/07/15 07:09:53;;;;;;;6.50;5.80;;;23.60;79.00;;;;;;5112857;28;20536;-66
2022/07/15 07:12:21;;;;;;;7.23;4.67;;;23.80;78.30;;;;;;5112730;28;20427;-69
2022/07/15 07:14:48;;;;;;;8.57;5.10;;;23.90;77.70;;;;;;5112992;28;20487;-66
2022/07/15 07:17:15;;;;;;;7.13;5.00;;;23.90;78.90;;;;;;5112671;28;20452;-66
2022/07/15 07:19:42;;;;;;;6.53;5.10;;;24.00;78.90;;;;;;5113135;28;20860;-66
2022/07/15 07:22:10;;;;;;;6.97;4.70;;;24.10;78.80;;;;;;5112443;28;21090;-66
2022/07/15 07:24:37;;;;;;;5.13;4.63;;;24.20;78.30;;;;;;5112929;28;20525;-66
2022/07/15 07:27:04;;;;;;;9.13;5.40;;;24.20;78.00;;;;;;5112850;28;20529;-66
2022/07/15 07:29:31;;;;;;;8.73;5.40;;;24.40;76.80;;;;;;5112910;28;20442;-66
2022/07/15 07:31:58;;;;;;;6.10;5.13;;;24.50;76.60;;;;;;5112731;28;20529;-66
2022/07/15 07:34:25;;;;;;;6.50;5.80;;;24.60;75.30;;;;;;5112695;28;20932;-66
2022/07/15 07:36:52;;;;;;;7.13;5.57;;;24.60;74.40;;;;;;5112646;28;20521;-66
2022/07/15 07:39:20;;;;;;;6.67;4.97;;;24.70;73.30;;;;;;5112988;28;21004;-66
2022/07/15 07:41:47;;;;;;;8.93;5.90;;;24.80;74.60;;;;;;5115792;28;20916;-66
2022/07/15 07:44:14;;;;;;;8.70;5.83;;;24.90;72.50;;;;;;5116360;28;20442;-65
2022/07/15 07:46:41;;;;;;;6.10;4.93;;;25.00;72.50;;;;;;5116129;28;20525;-66
2022/07/15 07:49:08;;;;;;;8.70;5.40;;;25.10;73.10;;;;;;5116006;28;21363;-66
2022/07/15 07:51:35;;;;;;;7.50;5.50;;;25.30;72.60;;;;;;5116200;28;20526;-66
2022/07/15 07:54:03;;;;;;;8.20;5.30;;;25.60;71.80;;;;;;5116005;28;20513;-66
2022/07/15 07:56:31;;;;;;;6.07;5.20;;;25.70;69.90;;;;;;5115892;28;20440;-67
2022/07/15 07:58:58;;;;;;;7.27;6.53;;;26.00;69.40;;;;;;5115723;28;20993;-66
2022/07/15 08:01:25;;;;;;;7.53;6.23;;;26.10;66.40;;;;;;5115728;28;20936;-68
2022/07/15 08:03:52;;;;;;;6.87;5.20;;;26.20;67.10;;;;;;5115605;28;20573;-66
2022/07/15 08:06:19;;;;;;;9.67;6.10;;;26.20;68.00;;;;;;5115772;28;20529;-66
2022/07/15 08:08:46;;;;;;;6.73;5.33;;;26.20;67.90;;;;;;5115458;28;20839;-66
2022/07/15 08:11:14;;;;;;;9.43;4.93;;;26.30;65.40;;;;;;5115487;28;20521;-66
2022/07/15 08:13:42;;;;;;;6.63;5.03;;;26.40;65.50;;;;;;5115330;28;20438;-66
2022/07/15 08:16:09;;;;;;;10.10;5.93;;;26.50;65.80;;;;;;5115608;28;20470;-66
2022/07/15 08:18:36;;;;;;;7.10;5.40;;;26.70;64.30;;;;;;5115472;28;20525;-66
2022/07/15 08:21:03;;;;;;;6.53;4.90;;;26.70;64.70;;;;;;5115624;28;20524;-66
2022/07/15 08:23:32;;;;;;;6.90;4.80;;;26.70;65.00;;;;;;5115376;28;20478;-66
2022/07/15 08:26:00;;;;;;;5.63;5.03;;;26.70;63.60;;;;;;5115421;28;20732;-66
2022/07/15 08:28:27;;;;;;;5.97;4.20;;;26.90;65.20;;;;;;5115436;28;20781;-66
2022/07/15 08:30:55;;;;;;;11.07;6.40;;;27.00;63.70;;;;;;5115574;28;20477;-66
2022/07/15 08:33:22;;;;;;;8.40;4.70;;;26.90;61.90;;;;;;5114885;28;21007;-66
2022/07/15 08:35:50;;;;;;;10.13;4.80;;;26.90;60.50;;;;;;5115004;28;20525;-66
2022/07/15 08:38:16;;;;;;;9.90;5.33;;;27.00;63.90;;;;;;5115084;28;20449;-66
2022/07/15 08:40:44;;;;;;;8.10;5.37;;;27.10;60.90;;;;;;5114909;28;20525;-66
2022/07/15 08:43:12;;;;;;;6.73;5.30;;;27.00;60.00;;;;;;5114761;28;20488;-66
2022/07/15 08:45:42;;;;;;;7.10;5.37;;;27.20;60.50;;;;;;5114645;28;20940;-66
2022/07/15 08:48:11;;;;;;;8.23;4.90;;;27.50;58.90;;;;;;5114500;28;20446;-67
2022/07/15 08:50:39;;;;;;;5.57;5.07;;;27.70;59.90;;;;;;5114479;28;20499;-72
2022/07/15 08:53:06;;;;;;;6.13;4.40;;;27.90;59.70;;;;;;5114798;28;20511;-66
2022/07/15 08:55:33;;;;;;;6.40;4.63;;;28.20;57.90;;;;;;5114654;28;20434;-66
2022/07/15 08:58:00;;;;;;;6.40;4.33;;;28.40;57.50;;;;;;5114356;28;20521;-66
2022/07/15 09:00:29;;;;;;;6.10;4.47;;;28.50;56.70;;;;;;5114803;28;20517;-67
2022/07/15 09:02:58;;;;;;;10.90;4.83;;;28.50;54.40;;;;;;5114085;28;20975;-66
2022/07/15 09:05:33;;;;;;;11.47;5.30;;;28.50;54.80;;;;;;5114493;28;20530;-66
2022/07/15 09:08:02;;;;;;;6.27;4.37;;;28.60;54.40;;;;;;5114611;28;20473;-68
2022/07/15 09:10:50;;;;;;;5.40;4.60;;;28.60;54.40;;;;;;5112098;28;20844;-66
2022/07/15 09:13:30;;;;;;;5.50;3.87;;;28.50;53.60;;;;;;5110950;28;20470;-66
2022/07/15 09:15:58;;;;;;;8.10;4.17;;;28.50;54.40;;;;;;5113330;28;20434;-66
2022/07/15 09:18:26;;;;;;;5.90;4.57;;;28.60;53.50;;;;;;5112777;28;20530;-66
2022/07/15 09:20:55;;;;;;;7.20;4.47;;;28.70;52.00;;;;;;5113093;28;20861;-66
2022/07/15 09:23:29;;;;;;;5.07;4.57;;;28.80;54.00;;;;;;5112925;28;20564;-66
2022/07/15 09:25:57;;;;;;;5.50;4.10;;;29.10;50.90;;;;;;5112795;28;20442;-66
2022/07/15 09:28:37;;;;;;;5.87;4.63;;;29.10;49.70;;;;;;5112555;28;20542;-66
2022/07/15 09:33:51;;;;;;;8.73;4.87;;;29.00;50.50;;;;;;5113319;28;20455;-66
2022/07/15 09:36:21;;;;;;;7.40;4.87;;;29.20;50.50;;;;;;5112850;28;20857;-67
2022/07/15 09:38:51;;;;;;;7.73;5.70;;;29.20;50.60;;;;;;5112670;28;20528;-68
2022/07/15 09:41:29;;;;;;;10.20;4.73;;;29.40;52.70;;;;;;5111211;28;20521;-66
2022/07/15 09:43:59;;;;;;;6.70;4.53;;;29.60;51.10;;;;;;5111868;28;20490;-66
2022/07/15 09:46:29;;;;;;;5.83;4.70;;;29.80;51.70;;;;;;5112433;28;20909;-66
2022/07/15 09:48:56;;;;;;;6.23;4.60;;;30.10;53.20;;;;;;5112268;28;20494;-68
2022/07/15 09:51:25;;;;;;;7.60;5.07;;;30.30;51.30;;;;;;5112591;28;20473;-67
2022/07/15 09:53:52;;;;;;;7.60;5.80;;;30.30;49.60;;;;;;5112076;28;20533;-66
2022/07/15 09:56:23;;;;;;;10.53;5.30;;;30.30;49.80;;;;;;5112318;28;20477;-66
2022/07/15 09:58:51;;;;;;;5.53;4.40;;;30.20;50.20;;;;;;5110643;28;20450;-66
2022/07/15 10:01:18;;;;;;;9.13;5.50;;;30.10;50.20;;;;;;5110301;28;20507;-66
2022/07/15 10:03:45;;;;;;;5.27;4.07;;;30.20;51.00;;;;;;5111588;28;20520;-66
2022/07/15 10:06:15;;;;;;;6.63;4.10;;;30.40;51.50;;;;;;5112231;28;20567;-66
2022/07/15 10:08:47;;;;;;;7.97;4.67;;;30.60;50.40;;;;;;5111453;28;20997;-67
2022/07/15 10:11:14;;;;;;;6.43;4.40;;;30.80;50.10;;;;;;5112504;28;20442;-66
2022/07/15 10:14:15;;;;;;;9.77;4.90;;;31.00;49.80;;;;;;5112319;28;20530;-66
2022/07/15 10:17:20;;;;;;;5.87;4.40;;;31.20;47.20;;;;;;5111478;28;20493;-67
2022/07/15 10:20:18;;;;;;;4.00;3.40;;;31.40;46.70;;;;;;5111871;28;20917;-66
2022/07/15 10:22:57;;;;;;;6.17;3.30;;;31.60;47.60;;;;;;5111709;28;20579;-66
2022/07/15 10:25:42;;;;;;;8.30;4.20;;;31.80;46.00;;;;;;5110388;28;20456;-66
2022/07/15 10:28:14;;;;;;;5.57;3.40;;;31.80;44.20;;;;;;5110797;28;20469;-66
2022/07/15 10:30:43;;;;;;;5.00;4.03;;;31.90;44.00;;;;;;5112040;28;20441;-66
2022/07/15 10:33:15;;;;;;;5.20;3.73;;;31.80;42.40;;;;;;5112154;28;20949;-66
2022/07/15 10:35:47;;;;;;;7.27;3.50;;;31.60;42.10;;;;;;5112092;28;20541;-66
2022/07/15 10:38:26;;;;;;;6.23;3.67;;;31.50;42.70;;;;;;5111757;28;20850;-66
2022/07/15 10:41:06;;;;;;;5.07;4.00;;;31.50;43.90;;;;;;5110982;28;20444;-66
2022/07/15 10:43:42;;;;;;;6.23;3.33;;;31.60;42.90;;;;;;5109590;28;20564;-66
2022/07/15 10:46:22;;;;;;;4.60;3.50;;;31.70;43.20;;;;;;5112159;28;20520;-66
2022/07/15 10:48:50;;;;;;;4.70;4.20;;;31.60;43.40;;;;;;5111716;28;21011;-67
2022/07/15 10:51:44;;;;;;;6.00;3.20;;;31.40;41.60;;;;;;5111840;28;20438;-66
2022/07/15 10:54:32;;;;;;;5.83;4.10;;;31.30;41.80;;;;;;5110235;28;20480;-66
2022/07/15 10:57:02;;;;;;;6.33;3.70;;;31.30;42.70;;;;;;5111917;28;20442;-66
2022/07/15 10:59:40;;;;;;;4.93;3.60;;;31.20;43.00;;;;;;5111463;28;20819;-66
2022/07/15 11:02:16;;;;;;;5.77;4.03;;;31.30;44.10;;;;;;5111441;28;20477;-67
2022/07/15 11:04:45;;;;;;;8.57;3.90;;;31.30;43.60;;;;;;5111596;28;20492;-66
2022/07/15 11:07:35;;;;;;;4.70;3.13;;;31.60;44.00;;;;;;5111680;28;20434;-66
2022/07/15 11:10:19;;;;;;;8.30;3.63;;;31.90;43.00;;;;;;5111578;28;20935;-66
2022/07/15 11:12:59;;;;;;;5.90;3.27;;;31.90;42.20;;;;;;5110752;28;20469;-66
2022/07/15 11:15:27;;;;;;;5.07;3.20;;;31.70;40.60;;;;;;5114804;28;20533;-66
2022/07/15 11:17:56;;;;;;;5.63;3.50;;;31.80;42.20;;;;;;5115291;28;20470;-66
2022/07/15 11:20:25;;;;;;;5.93;3.63;;;31.80;38.20;;;;;;5114878;28;20941;-66
2022/07/15 11:22:54;;;;;;;5.00;3.20;;;31.30;38.80;;;;;;5115431;28;20529;-66
2022/07/15 11:25:23;;;;;;;6.17;4.30;;;31.20;41.10;;;;;;5115123;28;20517;-67
2022/07/15 11:28:09;;;;;;;6.27;3.70;;;31.40;42.30;;;;;;5115263;28;20474;-67
2022/07/15 11:30:40;;;;;;;6.47;3.13;;;31.70;43.00;;;;;;5112392;28;20517;-67
2022/07/15 11:33:09;;;;;;;7.93;4.00;;;32.00;42.60;;;;;;5112604;28;20525;-66
2022/07/15 11:35:51;;;;;;;6.20;3.80;;;32.10;40.10;;;;;;5112045;28;20588;-66
2022/07/15 11:38:19;;;;;;;5.60;3.50;;;32.10;40.20;;;;;;5114849;28;20437;-67
2022/07/15 11:46:21;;;;;;;6.97;3.27;;;31.80;41.50;;;;;;5113559;28;20425;-67
2022/07/15 11:48:48;;;;;;;5.10;3.60;;;31.80;42.20;;;;;;5114856;28;20529;-66
2022/07/15 11:51:15;;;;;;;6.93;3.53;;;31.70;41.50;;;;;;5114760;28;20526;-66
2022/07/15 11:53:43;;;;;;;7.63;3.83;;;31.50;40.50;;;;;;5114933;28;20513;-66
2022/07/15 11:56:12;;;;;;;8.13;3.57;;;31.60;42.20;;;;;;5114886;28;20529;-66
2022/07/15 11:58:43;;;;;;;6.07;3.60;;;31.80;42.10;;;;;;5111643;28;20473;-67
2022/07/15 12:01:13;;;;;;;4.60;3.50;;;31.90;40.80;;;;;;5114816;28;20744;-67
2022/07/15 12:03:42;;;;;;;6.40;4.10;;;31.80;40.10;;;;;;5111822;28;21290;-67
2022/07/15 12:06:15;;;;;;;3.90;3.07;;;31.70;39.60;;;;;;5113979;28;20438;-66
2022/07/15 12:08:47;;;;;;;7.33;3.50;;;31.80;40.80;;;;;;5110885;28;20512;-66
2022/07/15 12:11:23;;;;;;;5.87;3.53;;;31.80;40.60;;;;;;5114275;28;20951;-71
2022/07/15 12:13:55;;;;;;;5.10;3.30;;;31.90;41.30;;;;;;5111603;28;20799;-67
2022/07/15 12:16:29;;;;;;;5.40;3.20;;;32.00;40.50;;;;;;5113643;28;20833;-66
2022/07/15 12:18:58;;;;;;;6.43;3.70;;;31.90;39.40;;;;;;5113081;28;20441;-66
2022/07/15 12:21:26;;;;;;;6.27;3.40;;;31.70;38.90;;;;;;5113160;28;20446;-66
2022/07/15 12:24:09;;;;;;;5.90;3.70;;;31.40;38.90;;;;;;5113096;28;20547;-66
2022/07/15 12:26:41;;;;;;;5.97;4.17;;;31.20;39.70;;;;;;5112638;28;20794;-66
2022/07/15 12:29:12;;;;;;;4.70;3.43;;;30.90;40.30;;;;;;5110035;28;20443;-66
2022/07/15 12:31:43;;;;;;;6.50;3.90;;;30.70;39.40;;;;;;5114137;28;21019;-66
2022/07/15 12:34:15;;;;;;;4.43;3.17;;;30.50;40.20;;;;;;5110836;28;20435;-66
2022/07/15 12:36:42;;;;;;;7.23;3.80;;;30.30;41.00;;;;;;5110712;28;20457;-66
2022/07/15 12:39:12;;;;;;;5.50;4.43;;;30.30;42.10;;;;;;5113722;28;20510;-66
2022/07/15 12:41:41;;;;;;;8.07;3.30;;;30.30;43.10;;;;;;5109977;28;20544;-66
2022/07/15 12:44:11;;;;;;;6.10;3.80;;;30.40;42.60;;;;;;5109525;28;20553;-66
2022/07/15 12:46:56;;;;;;;4.87;3.13;;;30.40;43.10;;;;;;5113389;28;20618;-66
2022/07/15 12:49:50;;;;;;;8.07;3.63;;;30.50;43.40;;;;;;5111106;28;20534;-66
2022/07/15 12:52:23;;;;;;;6.30;4.37;;;30.70;43.60;;;;;;5110835;28;20434;-66
2022/07/15 12:54:52;;;;;;;6.47;4.10;;;30.80;42.90;;;;;;5113738;28;21008;-66
2022/07/15 12:57:29;;;;;;;6.97;3.30;;;30.70;41.10;;;;;;5113721;28;20449;-67
2022/07/15 12:59:59;;;;;;;7.60;3.27;;;30.70;41.30;;;;;;5113870;28;20488;-66
2022/07/15 13:02:26;;;;;;;5.50;3.70;;;30.70;41.00;;;;;;5113083;28;20556;-66
2022/07/15 13:04:54;;;;;;;5.43;3.53;;;30.70;42.70;;;;;;5113484;28;20882;-67
2022/07/15 13:07:21;;;;;;;8.83;3.53;;;30.60;42.30;;;;;;5113375;28;20530;-67